Time;durP1;ratioP1;P1;durP2;ratioP2;P2;SDS_P1;SDS_P2;PMS_P1;PMS_P2;Temp;Humidity;BMP_temperature;BMP_pressure;BME280_temperature;BME280_humidity;BME280_pressure;Samples;Min_cycle;Max_cycle;Signal;HPM_P1;HPM_P2
2021/07/07 00:00:22;;;;;;;2.78;1.00;;;16.30;78.60;;;;;;5093459;28;20366;-79
2021/07/07 00:02:48;;;;;;;3.57;1.00;;;16.30;78.30;;;;;;5093585;28;20389;-79
2021/07/07 00:05:15;;;;;;;3.80;0.98;;;16.30;78.50;;;;;;5075285;28;20386;-79
2021/07/07 00:07:42;;;;;;;3.53;1.20;;;16.30;78.30;;;;;;5109329;28;20378;-81
2021/07/07 00:10:11;;;;;;;3.90;1.05;;;16.20;78.80;;;;;;5093181;28;20377;-79
2021/07/07 00:12:36;;;;;;;3.40;1.10;;;16.20;78.40;;;;;;5075346;28;20402;-79
2021/07/07 00:15:09;;;;;;;7.88;1.70;;;16.10;79.00;;;;;;5093376;28;21109;-80
2021/07/07 00:17:35;;;;;;;3.28;1.10;;;16.10;78.80;;;;;;5091863;28;20370;-79
2021/07/07 00:20:01;;;;;;;5.18;1.20;;;16.00;79.30;;;;;;5092924;28;20668;-79
2021/07/07 00:22:27;;;;;;;3.33;1.00;;;16.00;79.30;;;;;;5092947;28;20390;-79
2021/07/07 00:24:52;;;;;;;3.40;1.20;;;16.00;79.20;;;;;;5108964;28;20425;-80
2021/07/07 00:27:18;;;;;;;4.10;1.20;;;16.00;79.30;;;;;;5092717;28;20726;-80
2021/07/07 00:29:44;;;;;;;2.83;1.05;;;15.90;79.80;;;;;;5108054;28;20430;-79
2021/07/07 00:32:09;;;;;;;3.63;1.27;;;15.90;79.60;;;;;;5093056;28;20443;-79
2021/07/07 00:34:35;;;;;;;2.92;1.30;;;15.90;79.50;;;;;;5092703;28;20467;-79
2021/07/07 00:37:02;;;;;;;7.90;1.33;;;15.90;79.60;;;;;;5074494;28;20726;-81
2021/07/07 00:39:27;;;;;;;3.63;1.27;;;15.90;79.70;;;;;;5092233;28;20399;-80
2021/07/07 00:41:53;;;;;;;5.85;1.40;;;15.90;79.20;;;;;;5092973;28;20449;-80
2021/07/07 00:44:19;;;;;;;5.60;1.17;;;15.90;79.50;;;;;;5108076;28;20870;-80
2021/07/07 00:46:45;;;;;;;5.77;1.37;;;15.80;79.50;;;;;;5092750;28;20730;-81
2021/07/07 00:49:13;;;;;;;4.93;1.38;;;15.80;80.10;;;;;;5091881;28;20373;-80
2021/07/07 00:51:39;;;;;;;4.13;1.30;;;15.70;80.50;;;;;;5092683;28;20469;-80
2021/07/07 00:54:05;;;;;;;5.43;1.30;;;15.70;80.50;;;;;;5092138;28;20849;-80
2021/07/07 00:56:34;;;;;;;4.88;1.40;;;15.70;80.60;;;;;;5092511;28;20409;-80
2021/07/07 00:59:02;;;;;;;5.07;1.92;;;15.60;80.90;;;;;;5091506;28;20716;-79
2021/07/07 01:01:28;;;;;;;7.90;1.40;;;15.60;80.80;;;;;;5091849;28;20388;-79
2021/07/07 01:03:54;;;;;;;5.00;1.37;;;15.50;80.70;;;;;;5092068;28;20459;-80
2021/07/07 01:06:19;;;;;;;4.27;1.00;;;15.50;80.70;;;;;;5092111;28;20961;-79
2021/07/07 01:08:45;;;;;;;4.57;1.30;;;15.40;81.10;;;;;;5107653;28;20718;-81
2021/07/07 01:11:10;;;;;;;2.70;1.70;;;15.50;81.00;;;;;;5091870;28;20374;-80
2021/07/07 01:13:39;;;;;;;3.88;1.42;;;15.50;81.30;;;;;;5092098;28;20394;-80
2021/07/07 01:16:05;;;;;;;7.25;1.50;;;15.40;81.50;;;;;;5091705;28;20378;-79
2021/07/07 01:18:31;;;;;;;5.82;1.63;;;15.40;81.40;;;;;;5091714;28;20388;-79
2021/07/07 01:20:57;;;;;;;3.10;1.40;;;15.60;80.90;;;;;;5091651;28;20381;-80
2021/07/07 01:23:22;;;;;;;5.43;1.43;;;15.50;80.90;;;;;;5091727;28;20815;-80
2021/07/07 01:25:48;;;;;;;5.77;1.60;;;15.40;80.80;;;;;;5091700;28;20377;-80
2021/07/07 01:28:16;;;;;;;4.22;1.80;;;15.40;80.90;;;;;;5107088;28;20386;-79
2021/07/07 01:30:42;;;;;;;6.15;1.60;;;15.30;81.20;;;;;;5091215;28;20726;-80
2021/07/07 01:33:07;;;;;;;7.15;1.48;;;15.30;81.30;;;;;;5091415;28;20398;-80
2021/07/07 01:35:32;;;;;;;4.53;1.40;;;15.30;81.30;;;;;;5107659;28;20397;-81
2021/07/07 01:37:58;;;;;;;3.20;1.60;;;15.40;81.10;;;;;;5091332;28;20386;-79
2021/07/07 01:40:25;;;;;;;10.57;1.80;;;15.40;81.30;;;;;;5091210;28;20761;-79
2021/07/07 01:42:51;;;;;;;5.05;1.48;;;15.30;81.20;;;;;;5091304;28;20370;-80
2021/07/07 01:45:18;;;;;;;3.15;1.30;;;15.30;81.30;;;;;;5091614;28;20380;-80
2021/07/07 01:47:44;;;;;;;6.25;2.05;;;15.40;81.00;;;;;;5072858;28;20382;-79
2021/07/07 01:50:11;;;;;;;5.15;1.50;;;15.40;81.30;;;;;;5091230;28;20366;-80
2021/07/07 01:52:38;;;;;;;7.65;1.50;;;15.30;81.10;;;;;;5072891;28;20804;-80
2021/07/07 01:55:08;;;;;;;4.85;2.03;;;15.30;81.00;;;;;;5091632;28;20382;-80
2021/07/07 01:57:44;;;;;;;4.30;1.55;;;15.30;81.00;;;;;;5091378;28;20378;-79
2021/07/07 02:00:20;;;;;;;5.25;1.48;;;15.20;81.20;;;;;;5072730;28;20489;-79
2021/07/07 02:02:48;;;;;;;5.38;1.40;;;15.10;81.60;;;;;;5091698;28;20382;-79
2021/07/07 02:05:14;;;;;;;7.60;1.80;;;15.20;81.60;;;;;;5091008;28;20563;-80
2021/07/07 02:07:41;;;;;;;3.65;1.40;;;15.10;81.50;;;;;;5072877;28;20382;-80
2021/07/07 02:10:11;;;;;;;6.53;1.65;;;15.20;81.70;;;;;;5090925;28;20473;-79
2021/07/07 02:12:37;;;;;;;4.18;1.65;;;15.10;81.90;;;;;;5091124;28;20406;-80
2021/07/07 02:15:09;;;;;;;9.48;2.00;;;15.10;81.60;;;;;;5106237;28;20385;-80
2021/07/07 02:17:35;;;;;;;3.28;1.75;;;15.10;82.10;;;;;;5091170;28;20753;-79
2021/07/07 02:20:01;;;;;;;6.95;1.98;;;15.10;82.10;;;;;;5090872;28;20373;-79
2021/07/07 02:22:27;;;;;;;8.97;1.67;;;15.00;82.20;;;;;;5090844;28;20381;-79
2021/07/07 02:24:52;;;;;;;5.47;1.97;;;15.00;82.20;;;;;;5091160;28;20362;-80
2021/07/07 02:27:18;;;;;;;5.87;1.90;;;15.10;82.20;;;;;;5090611;28;20443;-79
2021/07/07 02:29:43;;;;;;;10.05;4.10;;;15.10;82.20;;;;;;5091135;28;20741;-80
2021/07/07 02:32:09;;;;;;;6.53;2.00;;;15.10;82.10;;;;;;5090743;28;20408;-79
2021/07/07 02:34:35;;;;;;;4.88;2.13;;;15.00;82.50;;;;;;5090948;28;20382;-79
2021/07/07 02:37:00;;;;;;;5.15;1.80;;;15.00;82.30;;;;;;5090881;28;20394;-79
2021/07/07 02:39:26;;;;;;;12.25;2.13;;;15.00;82.20;;;;;;5090820;28;21145;-79
2021/07/07 02:41:52;;;;;;;4.67;1.80;;;15.00;82.60;;;;;;5072669;28;20382;-79
2021/07/07 02:44:18;;;;;;;10.07;2.23;;;14.90;82.60;;;;;;5106512;28;20389;-79
2021/07/07 02:46:43;;;;;;;5.47;2.30;;;14.90;82.80;;;;;;5090687;28;20378;-79
2021/07/07 02:49:09;;;;;;;5.93;1.73;;;15.00;82.80;;;;;;5089922;28;20708;-79
2021/07/07 02:51:34;;;;;;;8.90;1.63;;;14.90;82.90;;;;;;5106251;28;20392;-80
2021/07/07 02:54:00;;;;;;;5.07;1.93;;;15.00;83.00;;;;;;5090284;28;20402;-81
2021/07/07 02:56:25;;;;;;;6.47;1.80;;;15.00;82.70;;;;;;5090364;28;20459;-79
2021/07/07 02:58:51;;;;;;;5.72;1.70;;;14.90;83.10;;;;;;5089648;28;20393;-79
2021/07/07 03:01:17;;;;;;;8.77;2.00;;;14.90;82.70;;;;;;5105362;28;20378;-79
2021/07/07 03:03:42;;;;;;;6.03;1.88;;;14.90;83.00;;;;;;5090023;28;20849;-79
2021/07/07 03:06:10;;;;;;;10.50;2.00;;;14.90;83.40;;;;;;5106123;28;20427;-79
2021/07/07 03:08:40;;;;;;;7.95;1.92;;;14.80;83.30;;;;;;5089775;28;20370;-80
2021/07/07 03:11:06;;;;;;;7.32;2.08;;;14.80;83.60;;;;;;5072389;28;20394;-79
2021/07/07 03:13:31;;;;;;;5.30;1.67;;;14.90;83.10;;;;;;5090264;28;20742;-80
2021/07/07 03:15:57;;;;;;;6.82;1.92;;;14.70;83.80;;;;;;5090412;28;20406;-80
2021/07/07 03:18:22;;;;;;;5.77;1.83;;;14.70;83.90;;;;;;5105613;28;20401;-79
2021/07/07 03:20:52;;;;;;;8.57;2.40;;;14.80;83.80;;;;;;5089697;28;20370;-80
2021/07/07 03:23:19;;;;;;;10.23;1.70;;;14.80;83.80;;;;;;5072450;28;20438;-79
2021/07/07 03:25:46;;;;;;;8.73;2.30;;;14.70;83.60;;;;;;5090026;28;20382;-80
2021/07/07 03:28:12;;;;;;;8.87;2.47;;;14.80;83.50;;;;;;5092950;28;20377;-80
2021/07/07 03:30:38;;;;;;;9.13;1.93;;;14.80;83.60;;;;;;5108338;28;20857;-79
2021/07/07 03:33:04;;;;;;;9.90;1.73;;;14.80;83.10;;;;;;5109785;28;20413;-80
2021/07/07 03:35:30;;;;;;;6.30;1.67;;;14.80;83.70;;;;;;5093736;28;20374;-80
2021/07/07 03:37:56;;;;;;;7.47;2.25;;;14.80;83.40;;;;;;5075487;28;20861;-80
2021/07/07 03:40:22;;;;;;;5.78;1.83;;;14.80;83.40;;;;;;5074613;28;20711;-80
2021/07/07 03:42:48;;;;;;;7.63;1.87;;;14.70;83.60;;;;;;5093933;28;20830;-79
2021/07/07 03:45:16;;;;;;;7.93;2.00;;;14.70;83.70;;;;;;5093621;28;20431;-79
2021/07/07 03:47:42;;;;;;;11.75;1.80;;;14.80;83.80;;;;;;5093059;28;20365;-80
2021/07/07 03:50:09;;;;;;;9.25;2.05;;;14.80;83.70;;;;;;5074964;28;20455;-81
2021/07/07 03:52:35;;;;;;;9.63;1.88;;;14.80;83.70;;;;;;5093235;28;20404;-80
2021/07/07 03:55:03;;;;;;;8.02;1.70;;;14.80;83.70;;;;;;5109529;28;20389;-79
2021/07/07 03:57:30;;;;;;;9.48;2.38;;;14.70;83.90;;;;;;5075026;28;20435;-79
2021/07/07 03:59:55;;;;;;;11.52;2.10;;;14.80;83.70;;;;;;5108930;28;20723;-80
2021/07/07 04:02:21;;;;;;;3.70;1.60;;;14.80;83.80;;;;;;5093008;28;20362;-80
2021/07/07 04:04:46;;;;;;;8.57;2.00;;;14.80;83.70;;;;;;5093502;28;20698;-80
2021/07/07 04:07:12;;;;;;;6.63;2.03;;;14.80;83.90;;;;;;5093057;28;20374;-80
2021/07/07 04:09:38;;;;;;;6.25;1.80;;;14.70;84.10;;;;;;5108728;28;20394;-80
2021/07/07 04:12:03;;;;;;;7.27;2.50;;;14.80;83.70;;;;;;5092941;28;20431;-79
2021/07/07 04:14:29;;;;;;;7.00;2.10;;;14.70;83.90;;;;;;5093302;28;20398;-79
2021/07/07 04:16:56;;;;;;;7.60;2.35;;;14.80;84.00;;;;;;5092803;28;20393;-80
2021/07/07 04:19:23;;;;;;;7.33;2.30;;;14.70;83.90;;;;;;5092648;28;20377;-79
2021/07/07 04:21:49;;;;;;;8.75;2.30;;;14.80;84.30;;;;;;5093247;28;20382;-79
2021/07/07 04:24:15;;;;;;;6.95;2.08;;;14.80;84.20;;;;;;5092518;28;20378;-77
2021/07/07 04:26:41;;;;;;;7.38;1.77;;;14.80;83.90;;;;;;5093099;28;20374;-80
2021/07/07 04:29:07;;;;;;;5.20;1.73;;;14.80;83.80;;;;;;5092392;28;20691;-80
2021/07/07 04:31:34;;;;;;;10.77;1.90;;;14.90;84.00;;;;;;5093038;28;20835;-80
2021/07/07 04:33:59;;;;;;;7.10;1.73;;;14.80;83.90;;;;;;5074414;28;20425;-78
2021/07/07 04:36:25;;;;;;;8.10;2.40;;;14.90;83.70;;;;;;5108595;28;20421;-78
2021/07/07 04:38:51;;;;;;;6.93;1.80;;;14.80;84.00;;;;;;5091847;28;20397;-79
2021/07/07 04:41:16;;;;;;;8.27;1.90;;;14.90;83.90;;;;;;5075093;28;20374;-78
2021/07/07 04:43:42;;;;;;;7.43;1.85;;;15.00;83.80;;;;;;5092501;28;20382;-79
2021/07/07 04:46:09;;;;;;;8.67;2.07;;;15.00;83.80;;;;;;5092693;28;20710;-78
2021/07/07 04:48:34;;;;;;;6.07;1.80;;;15.00;83.80;;;;;;5092238;28;20384;-79
2021/07/07 04:51:00;;;;;;;7.10;1.70;;;15.10;84.20;;;;;;5107905;28;20370;-79
2021/07/07 04:53:25;;;;;;;7.75;1.70;;;15.10;83.70;;;;;;5092057;28;20405;-79
2021/07/07 04:55:51;;;;;;;9.55;1.73;;;15.10;83.50;;;;;;5091684;28;20378;-80
2021/07/07 04:58:17;;;;;;;6.90;1.90;;;15.20;83.50;;;;;;5074013;28;20397;-80
2021/07/07 05:00:42;;;;;;;8.00;2.25;;;15.30;83.40;;;;;;5091949;28;20722;-78
2021/07/07 05:03:08;;;;;;;5.90;1.80;;;15.30;83.50;;;;;;5091923;28;20372;-79
2021/07/07 05:05:33;;;;;;;6.50;2.70;;;15.40;83.20;;;;;;5092106;28;20544;-79
2021/07/07 05:07:59;;;;;;;9.50;2.03;;;15.40;83.20;;;;;;5091563;28;20362;-79
2021/07/07 05:10:26;;;;;;;10.00;2.33;;;15.40;83.50;;;;;;5091562;28;20382;-79
2021/07/07 05:12:51;;;;;;;7.32;1.70;;;15.40;83.40;;;;;;5090178;28;20464;-80
2021/07/07 05:15:17;;;;;;;11.35;2.00;;;15.40;83.40;;;;;;5071663;28;20420;-79
2021/07/07 05:17:44;;;;;;;8.25;2.53;;;15.50;83.30;;;;;;5089672;28;20451;-79
2021/07/07 05:20:10;;;;;;;5.13;1.88;;;15.60;83.00;;;;;;5089884;28;20375;-78
2021/07/07 05:22:36;;;;;;;5.03;1.55;;;15.70;82.70;;;;;;5089850;28;20393;-78
2021/07/07 05:25:02;;;;;;;4.63;1.65;;;15.80;82.70;;;;;;5071927;28;20370;-78
2021/07/07 05:27:28;;;;;;;9.18;2.25;;;15.80;82.60;;;;;;5090254;28;20869;-79
2021/07/07 05:29:54;;;;;;;7.13;1.70;;;15.90;82.30;;;;;;5073655;28;20385;-77
2021/07/07 05:32:22;;;;;;;7.30;1.80;;;15.80;82.50;;;;;;5073335;28;20378;-80
2021/07/07 05:34:49;;;;;;;10.38;1.70;;;15.90;82.50;;;;;;5092019;28;20386;-78
2021/07/07 05:37:20;;;;;;;5.47;1.77;;;16.00;82.40;;;;;;5091410;28;20866;-77
2021/07/07 05:39:45;;;;;;;10.30;2.10;;;16.00;82.20;;;;;;5073569;28;20470;-79
2021/07/07 05:42:15;;;;;;;6.25;1.70;;;16.20;81.80;;;;;;5091674;28;20406;-79
2021/07/07 05:44:42;;;;;;;4.57;2.00;;;16.20;81.90;;;;;;5091142;28;21736;-79
2021/07/07 05:47:08;;;;;;;6.63;1.80;;;16.30;81.80;;;;;;5073722;28;20385;-80
2021/07/07 05:49:33;;;;;;;8.17;1.90;;;16.40;82.00;;;;;;5090577;28;20385;-78
2021/07/07 05:51:58;;;;;;;5.30;1.65;;;16.40;81.00;;;;;;5091897;28;20692;-76
2021/07/07 05:54:24;;;;;;;5.83;1.70;;;16.40;81.80;;;;;;5091669;28;20394;-78
2021/07/07 05:56:50;;;;;;;6.43;1.73;;;16.40;81.40;;;;;;5091867;28;20409;-80
2021/07/07 05:59:15;;;;;;;9.20;2.30;;;16.50;81.80;;;;;;5072894;28;20390;-78
2021/07/07 06:01:41;;;;;;;8.30;2.27;;;16.50;80.80;;;;;;5073374;28;20382;-76
2021/07/07 06:04:07;;;;;;;11.15;2.47;;;16.60;81.80;;;;;;5091071;28;20374;-79
2021/07/07 06:06:32;;;;;;;6.55;1.80;;;16.60;81.00;;;;;;5073134;28;20722;-79
2021/07/07 06:08:58;;;;;;;10.60;2.58;;;16.70;80.60;;;;;;5090763;28;20381;-78
2021/07/07 06:11:24;;;;;;;9.80;2.50;;;16.70;80.90;;;;;;5091070;28;20374;-80
2021/07/07 06:13:50;;;;;;;11.40;2.00;;;16.80;80.60;;;;;;5090826;28;20492;-79
2021/07/07 06:16:16;;;;;;;7.35;1.73;;;16.80;81.20;;;;;;5090827;28;20461;-81
2021/07/07 06:18:41;;;;;;;7.23;2.10;;;16.80;79.90;;;;;;5089170;28;20796;-79
2021/07/07 06:21:07;;;;;;;5.60;1.40;;;16.90;80.30;;;;;;5090819;28;20430;-80
2021/07/07 06:23:32;;;;;;;9.43;1.90;;;17.00;79.00;;;;;;5089469;28;20374;-79
2021/07/07 06:25:58;;;;;;;11.23;2.20;;;17.10;79.30;;;;;;5072858;28;20714;-79
2021/07/07 06:28:23;;;;;;;7.03;2.35;;;17.10;79.00;;;;;;5090652;28;20714;-79
2021/07/07 06:30:49;;;;;;;6.65;2.75;;;17.20;78.60;;;;;;5089890;28;20858;-78
2021/07/07 06:33:15;;;;;;;7.57;1.50;;;17.30;78.40;;;;;;5090715;28;20394;-80
2021/07/07 06:35:41;;;;;;;12.82;2.10;;;17.40;79.30;;;;;;5090515;28;20392;-80
2021/07/07 06:38:06;;;;;;;6.63;1.90;;;17.40;79.60;;;;;;5090493;28;20401;-80
2021/07/07 06:40:32;;;;;;;5.18;2.10;;;17.50;79.10;;;;;;5089978;28;20370;-79
2021/07/07 06:42:58;;;;;;;9.38;2.30;;;17.60;78.60;;;;;;5072716;28;20386;-77
2021/07/07 06:45:25;;;;;;;7.68;2.40;;;17.60;76.70;;;;;;5072372;28;20695;-78
2021/07/07 06:47:50;;;;;;;12.63;2.33;;;17.70;76.90;;;;;;5090291;28;20427;-80
2021/07/07 06:50:17;;;;;;;5.73;1.90;;;17.80;77.30;;;;;;5090422;28;20418;-77
2021/07/07 06:52:43;;;;;;;9.48;2.22;;;17.80;77.60;;;;;;5090173;28;20411;-80
2021/07/07 06:55:10;;;;;;;8.57;1.80;;;18.00;77.20;;;;;;5090677;28;20779;-78
2021/07/07 06:57:36;;;;;;;12.40;1.70;;;18.10;75.20;;;;;;5089839;28;20394;-78
2021/07/07 07:00:10;;;;;;;4.70;1.48;;;18.10;75.10;;;;;;5090291;28;20370;-80
2021/07/07 07:02:36;;;;;;;7.85;1.67;;;18.10;74.10;;;;;;5075417;28;20386;-79
2021/07/07 07:05:02;;;;;;;7.70;1.58;;;18.00;75.30;;;;;;5094683;28;20380;-78
2021/07/07 07:07:28;;;;;;;7.18;1.50;;;18.10;75.30;;;;;;5094516;28;20370;-78
2021/07/07 07:09:58;;;;;;;7.07;2.03;;;18.20;75.30;;;;;;5076207;28;20723;-81
2021/07/07 07:12:24;;;;;;;7.20;1.85;;;18.30;75.50;;;;;;5094205;28;20381;-79
2021/07/07 07:14:52;;;;;;;7.57;1.60;;;18.40;79.50;;;;;;5094561;28;20374;-81
2021/07/07 07:17:17;;;;;;;7.07;1.65;;;18.50;76.10;;;;;;5094308;28;20834;-77
2021/07/07 07:19:43;;;;;;;9.63;1.60;;;18.40;76.00;;;;;;5093926;28;20426;-78
2021/07/07 07:22:08;;;;;;;9.03;1.90;;;18.30;76.00;;;;;;5094431;28;20381;-79
2021/07/07 07:24:34;;;;;;;8.38;1.70;;;18.30;76.70;;;;;;5093853;28;20386;-81
2021/07/07 07:26:59;;;;;;;5.63;1.93;;;18.30;76.10;;;;;;5094207;28;20420;-79
2021/07/07 07:29:25;;;;;;;4.78;1.50;;;18.30;76.40;;;;;;5093728;28;20426;-76
2021/07/07 07:31:50;;;;;;;8.13;1.60;;;18.30;75.90;;;;;;5094341;28;20499;-79
2021/07/07 07:34:17;;;;;;;10.93;1.85;;;18.30;76.20;;;;;;5075571;28;20406;-79
2021/07/07 07:36:42;;;;;;;7.37;1.73;;;18.30;75.60;;;;;;5093989;28;20477;-76
2021/07/07 07:39:10;;;;;;;6.27;1.67;;;18.30;75.00;;;;;;5093617;28;20910;-78
2021/07/07 07:41:39;;;;;;;7.10;2.13;;;18.30;76.00;;;;;;5094080;28;20370;-77
2021/07/07 07:44:08;;;;;;;13.15;1.77;;;18.40;76.40;;;;;;5075697;28;20385;-77
2021/07/07 07:46:34;;;;;;;10.90;2.03;;;18.40;75.10;;;;;;5093601;28;20746;-77
2021/07/07 07:49:00;;;;;;;11.10;2.05;;;18.40;75.80;;;;;;5075331;28;20847;-79
2021/07/07 07:51:29;;;;;;;11.98;1.80;;;18.40;75.40;;;;;;5093482;28;20381;-80
2021/07/07 07:53:56;;;;;;;4.93;1.40;;;18.50;74.90;;;;;;5075523;28;20402;-79
2021/07/07 07:56:21;;;;;;;5.50;1.50;;;18.80;72.90;;;;;;5093497;28;20373;-77
2021/07/07 07:58:47;;;;;;;4.78;1.42;;;18.80;72.90;;;;;;5093309;28;20378;-80
2021/07/07 08:01:13;;;;;;;5.23;1.60;;;18.80;73.10;;;;;;5093408;28;20378;-77
2021/07/07 08:03:39;;;;;;;9.35;2.05;;;18.70;74.10;;;;;;5093550;28;20413;-78
2021/07/07 08:06:04;;;;;;;5.17;1.70;;;18.60;73.60;;;;;;5093314;28;20406;-79
2021/07/07 08:08:30;;;;;;;10.93;1.87;;;18.60;72.80;;;;;;5093469;28;20460;-78
2021/07/07 08:10:55;;;;;;;6.73;1.90;;;18.70;72.30;;;;;;5074759;28;20382;-79
2021/07/07 08:13:21;;;;;;;9.90;1.80;;;18.70;73.90;;;;;;5073898;28;20455;-79
2021/07/07 08:15:46;;;;;;;7.93;1.55;;;18.80;73.40;;;;;;5075189;28;20393;-78
2021/07/07 08:18:12;;;;;;;6.57;1.60;;;18.80;72.60;;;;;;5092868;28;20378;-78
2021/07/07 08:20:39;;;;;;;8.93;1.60;;;18.90;72.20;;;;;;5092990;28;20397;-80
2021/07/07 08:23:04;;;;;;;8.32;2.38;;;19.00;74.20;;;;;;5093170;28;20516;-80
2021/07/07 08:25:30;;;;;;;7.47;1.50;;;19.00;72.10;;;;;;5093255;28;20452;-79
2021/07/07 08:27:56;;;;;;;7.83;1.57;;;19.10;71.10;;;;;;5092440;28;20382;-79
2021/07/07 08:30:23;;;;;;;8.02;1.83;;;19.20;70.40;;;;;;5092870;28;20457;-79
2021/07/07 08:32:48;;;;;;;7.55;1.80;;;19.20;71.70;;;;;;5092503;28;20437;-79
2021/07/07 08:35:14;;;;;;;6.37;1.60;;;19.10;70.80;;;;;;5093061;28;20494;-80
2021/07/07 08:37:41;;;;;;;9.87;1.67;;;19.30;71.00;;;;;;5092481;28;20394;-78
2021/07/07 08:40:08;;;;;;;7.47;1.73;;;19.40;69.40;;;;;;5092683;28;20373;-79
2021/07/07 08:42:36;;;;;;;10.75;1.80;;;19.40;71.00;;;;;;5092784;28;20761;-78
2021/07/07 08:45:10;;;;;;;6.00;1.45;;;19.40;71.40;;;;;;5092556;28;20460;-79
2021/07/07 08:47:37;;;;;;;8.30;1.90;;;19.50;74.50;;;;;;5092686;28;20370;-78
2021/07/07 08:50:08;;;;;;;7.85;1.40;;;19.70;70.70;;;;;;5073971;28;20385;-80
2021/07/07 08:52:33;;;;;;;8.02;1.65;;;19.60;69.80;;;;;;5092504;28;20394;-77
2021/07/07 08:54:59;;;;;;;7.17;1.47;;;19.60;69.70;;;;;;5074086;28;20386;-78
2021/07/07 08:57:27;;;;;;;8.17;2.50;;;19.80;69.50;;;;;;5092741;28;20378;-77
2021/07/07 08:59:53;;;;;;;6.65;1.75;;;20.10;67.50;;;;;;5092066;28;20385;-77
2021/07/07 09:02:19;;;;;;;8.63;2.55;;;20.20;66.80;;;;;;5092506;28;20437;-79
2021/07/07 09:04:46;;;;;;;4.03;1.50;;;20.30;68.70;;;;;;5091839;28;20429;-79
2021/07/07 09:07:23;;;;;;;6.00;1.60;;;20.30;64.20;;;;;;5091930;28;20398;-79
2021/07/07 09:09:51;;;;;;;7.60;1.88;;;20.50;64.60;;;;;;5073924;28;20389;-78
2021/07/07 09:12:25;;;;;;;4.65;1.60;;;20.70;64.40;;;;;;5091970;28;20402;-79
2021/07/07 09:15:09;;;;;;;10.23;1.77;;;20.60;64.70;;;;;;5073799;28;20483;-82
2021/07/07 09:17:50;;;;;;;8.25;2.10;;;20.80;65.90;;;;;;5091577;28;20382;-78
2021/07/07 09:20:38;;;;;;;14.38;1.90;;;21.00;63.70;;;;;;5091965;28;20378;-77
2021/07/07 09:23:26;;;;;;;6.03;1.90;;;21.00;62.00;;;;;;5073957;28;20398;-79
2021/07/07 09:25:58;;;;;;;9.88;1.90;;;21.20;62.90;;;;;;5073781;28;20402;-79
2021/07/07 09:28:29;;;;;;;7.38;1.60;;;21.40;62.90;;;;;;5092042;28;20793;-80
2021/07/07 09:31:01;;;;;;;6.38;1.85;;;21.30;64.70;;;;;;5091452;28;20389;-79
2021/07/07 09:33:35;;;;;;;4.90;1.33;;;21.50;60.60;;;;;;5073830;28;20543;-78
2021/07/07 09:36:24;;;;;;;6.75;1.50;;;21.50;62.20;;;;;;5091924;28;20378;-78
2021/07/07 09:38:51;;;;;;;8.63;1.70;;;21.50;61.40;;;;;;5090947;28;20443;-80
2021/07/07 09:41:19;;;;;;;6.85;1.40;;;21.30;63.70;;;;;;5091474;28;20826;-78
2021/07/07 09:43:50;;;;;;;7.65;1.58;;;21.40;64.20;;;;;;5073270;28;20434;-78
2021/07/07 09:46:18;;;;;;;5.50;1.70;;;21.50;61.80;;;;;;5073606;28;20389;-79
2021/07/07 09:48:44;;;;;;;4.93;1.40;;;21.80;63.50;;;;;;5072772;28;20389;-78
2021/07/07 09:51:10;;;;;;;8.57;1.70;;;21.60;58.80;;;;;;5091217;28;20842;-80
2021/07/07 09:53:35;;;;;;;8.20;1.30;;;21.90;59.20;;;;;;5091125;28;20405;-76
2021/07/07 09:56:02;;;;;;;6.80;1.60;;;22.10;62.40;;;;;;5091522;28;20378;-78
2021/07/07 09:58:29;;;;;;;6.57;1.35;;;22.30;56.70;;;;;;5091206;28;20719;-79
2021/07/07 10:00:54;;;;;;;4.10;1.65;;;22.40;58.40;;;;;;5091081;28;20463;-79
2021/07/07 10:03:20;;;;;;;7.57;1.63;;;22.40;56.40;;;;;;5072772;28;20413;-79
2021/07/07 10:05:47;;;;;;;5.70;1.40;;;22.40;59.80;;;;;;5072863;28;20442;-80
2021/07/07 10:08:13;;;;;;;10.73;1.90;;;22.70;61.10;;;;;;5091144;28;20854;-80
2021/07/07 10:10:41;;;;;;;5.55;1.20;;;22.40;59.10;;;;;;5072541;28;20390;-80
2021/07/07 10:13:10;;;;;;;5.03;1.50;;;22.00;61.30;;;;;;5072893;28;20731;-78
2021/07/07 10:15:36;;;;;;;5.00;1.40;;;21.80;59.10;;;;;;5090572;28;20416;-78
2021/07/07 10:18:04;;;;;;;5.13;1.25;;;21.80;61.40;;;;;;5072750;28;20386;-79
2021/07/07 10:20:30;;;;;;;8.88;1.50;;;21.60;58.10;;;;;;5090431;28;20379;-77
2021/07/07 10:22:57;;;;;;;5.93;1.52;;;21.60;58.90;;;;;;5090749;28;20730;-79
2021/07/07 10:25:25;;;;;;;9.68;2.03;;;21.80;59.90;;;;;;5090968;28;20445;-79
2021/07/07 10:27:54;;;;;;;7.22;1.40;;;22.00;60.60;;;;;;5090795;28;20378;-78
2021/07/07 10:30:20;;;;;;;7.13;1.40;;;22.20;60.10;;;;;;5090358;28;20434;-80
2021/07/07 10:33:05;;;;;;;7.90;1.40;;;22.10;57.80;;;;;;5090450;28;20366;-79
2021/07/07 10:35:31;;;;;;;6.57;1.50;;;22.10;61.20;;;;;;5090193;28;20848;-78
2021/07/07 10:37:56;;;;;;;6.28;1.50;;;22.60;62.40;;;;;;5072166;28;20402;-78
2021/07/07 10:40:27;;;;;;;5.80;1.50;;;22.90;55.90;;;;;;5090700;28;20389;-77
2021/07/07 10:42:54;;;;;;;6.75;1.33;;;23.10;58.60;;;;;;5090414;28;20390;-78
2021/07/07 10:45:41;;;;;;;4.65;1.25;;;23.10;56.30;;;;;;5090808;28;20378;-78
2021/07/07 10:48:26;;;;;;;6.25;1.50;;;23.00;55.30;;;;;;5090331;28;20461;-79
2021/07/07 10:51:00;;;;;;;6.53;1.60;;;22.80;58.70;;;;;;5090156;28;20858;-78
2021/07/07 10:53:26;;;;;;;5.95;1.58;;;22.60;59.80;;;;;;5090537;28;20402;-79
2021/07/07 10:55:51;;;;;;;5.77;1.40;;;22.40;60.30;;;;;;5090439;28;20688;-80
2021/07/07 10:58:43;;;;;;;11.23;2.30;;;22.20;62.10;;;;;;5090498;28;20902;-78
2021/07/07 11:01:35;;;;;;;5.57;1.63;;;21.80;56.90;;;;;;5085376;28;20451;-78
2021/07/07 11:04:02;;;;;;;6.55;1.58;;;21.80;59.10;;;;;;5090436;28;20421;-79
2021/07/07 11:06:37;;;;;;;10.40;1.50;;;21.70;59.10;;;;;;5090437;28;20370;-79
2021/07/07 11:09:16;;;;;;;7.80;1.50;;;21.80;59.60;;;;;;5089946;28;20378;-78
2021/07/07 11:11:44;;;;;;;6.10;1.42;;;21.80;61.10;;;;;;5072478;28;20499;-78
2021/07/07 11:14:23;;;;;;;7.10;1.70;;;21.60;58.70;;;;;;5090107;28;20738;-78
2021/07/07 11:16:54;;;;;;;6.45;1.55;;;21.50;59.90;;;;;;5090730;28;20853;-78
2021/07/07 11:19:45;;;;;;;8.85;2.00;;;21.30;61.20;;;;;;5071768;28;20428;-78
2021/07/07 11:22:12;;;;;;;5.88;1.63;;;21.30;62.40;;;;;;5090254;28;20374;-79
2021/07/07 11:24:43;;;;;;;10.80;2.00;;;21.20;60.20;;;;;;5090384;28;20397;-79
2021/07/07 11:27:08;;;;;;;6.55;1.50;;;21.10;62.20;;;;;;5071878;28;20780;-78
2021/07/07 11:29:34;;;;;;;7.03;2.20;;;21.30;62.60;;;;;;5089704;28;20384;-78
2021/07/07 11:32:00;;;;;;;6.50;1.70;;;21.70;62.20;;;;;;5086351;28;20382;-78
2021/07/07 11:34:43;;;;;;;5.57;1.33;;;22.30;62.60;;;;;;5088343;28;20398;-79
2021/07/07 11:37:09;;;;;;;6.85;1.85;;;22.20;61.60;;;;;;5089003;28;20452;-79
2021/07/07 11:39:34;;;;;;;8.10;2.17;;;21.90;62.70;;;;;;5071413;28;20896;-79
2021/07/07 11:42:07;;;;;;;5.60;1.70;;;22.00;61.70;;;;;;5089510;28;20389;-79
2021/07/07 11:44:43;;;;;;;6.60;1.73;;;21.90;62.70;;;;;;5090061;28;20915;-79
2021/07/07 11:47:09;;;;;;;4.50;1.60;;;22.10;62.30;;;;;;5090058;28;20422;-78
2021/07/07 11:49:35;;;;;;;6.93;2.17;;;22.20;64.40;;;;;;5092641;28;20385;-78
2021/07/07 11:52:05;;;;;;;8.67;2.80;;;22.00;60.50;;;;;;5093760;28;20698;-78
2021/07/07 11:54:47;;;;;;;6.43;1.55;;;22.60;62.00;;;;;;5093197;28;20459;-80
2021/07/07 11:57:13;;;;;;;5.80;1.52;;;23.00;58.40;;;;;;5093358;28;20386;-78
2021/07/07 11:59:38;;;;;;;8.57;2.17;;;23.00;59.20;;;;;;5074922;28;20435;-79
2021/07/07 12:02:04;;;;;;;6.90;1.33;;;23.00;58.10;;;;;;5093639;28;20411;-78
2021/07/07 12:04:29;;;;;;;6.15;1.33;;;22.50;55.80;;;;;;5092998;28;20381;-77
2021/07/07 12:06:58;;;;;;;4.13;1.40;;;22.10;57.20;;;;;;5093632;28;20459;-78
2021/07/07 12:09:24;;;;;;;9.50;1.30;;;21.80;58.80;;;;;;5092971;28;20375;-78
2021/07/07 12:11:55;;;;;;;4.30;1.58;;;21.60;58.60;;;;;;5093398;28;20453;-78
2021/07/07 12:14:23;;;;;;;6.43;1.50;;;21.70;57.70;;;;;;5093366;28;20548;-80
2021/07/07 12:16:49;;;;;;;8.10;1.42;;;21.60;57.80;;;;;;5093349;28;20378;-79
2021/07/07 12:19:16;;;;;;;3.80;1.30;;;21.60;58.20;;;;;;5093136;28;20377;-79
2021/07/07 12:21:45;;;;;;;8.57;1.60;;;22.30;57.40;;;;;;5093142;28;20599;-78
2021/07/07 12:24:22;;;;;;;7.75;1.30;;;22.80;62.20;;;;;;5093432;28;20715;-77
2021/07/07 12:26:54;;;;;;;3.63;1.10;;;23.20;56.80;;;;;;5093257;28;20425;-77
2021/07/07 12:29:21;;;;;;;7.72;1.42;;;23.20;52.60;;;;;;5074955;28;20377;-77
2021/07/07 12:31:48;;;;;;;3.35;1.20;;;23.20;53.50;;;;;;5075248;28;20734;-78
2021/07/07 12:34:17;;;;;;;4.03;1.30;;;23.40;53.80;;;;;;5092958;28;20402;-76
2021/07/07 12:36:44;;;;;;;4.78;1.40;;;23.30;52.80;;;;;;5092819;28;20370;-76
2021/07/07 12:39:13;;;;;;;4.43;1.20;;;23.40;51.40;;;;;;5074295;28;20710;-79
2021/07/07 12:41:41;;;;;;;7.93;1.63;;;23.30;54.00;;;;;;5092856;28;20384;-77
2021/07/07 12:44:12;;;;;;;8.07;1.33;;;23.50;53.70;;;;;;5092724;28;20794;-78
2021/07/07 12:46:52;;;;;;;5.32;1.27;;;23.30;55.20;;;;;;5092762;28;20403;-75